createdAt,value
2018-11-21T00:00:30.268Z,975.11
2018-11-21T00:01:30.223Z,975.16
2018-11-21T00:02:30.180Z,975.17
2018-11-21T00:03:30.140Z,975.13
2018-11-21T00:06:02.196Z,975.27
2018-11-21T00:07:02.132Z,975.30
2018-11-21T00:08:02.092Z,975.29
2018-11-21T00:09:02.047Z,975.31
2018-11-21T00:10:01.999Z,975.29
2018-11-21T00:11:01.960Z,975.29
2018-11-21T00:12:01.916Z,975.30
2018-11-21T00:13:01.876Z,975.29
2018-11-21T00:14:01.831Z,975.25
2018-11-21T00:15:01.784Z,975.18
2018-11-21T00:16:01.740Z,975.12
2018-11-21T00:17:01.699Z,975.07
2018-11-21T00:18:01.655Z,975.08
2018-11-21T00:19:01.615Z,975.10
2018-11-21T00:20:01.569Z,975.13
2018-11-21T00:21:01.527Z,975.20
2018-11-21T00:22:01.490Z,975.21
2018-11-21T00:23:01.438Z,975.23
2018-11-21T00:24:01.399Z,975.24
2018-11-21T00:25:01.360Z,975.26
2018-11-21T00:26:01.317Z,975.31
2018-11-21T00:27:01.264Z,975.33
2018-11-21T00:28:01.229Z,975.32
2018-11-21T00:29:01.180Z,975.29
2018-11-21T00:30:01.139Z,975.28
2018-11-21T00:31:01.098Z,975.26
2018-11-21T00:32:01.052Z,975.25
2018-11-21T00:33:01.008Z,975.24
2018-11-21T00:34:00.967Z,975.28
2018-11-21T00:35:00.918Z,975.30
2018-11-21T00:36:00.878Z,975.33
2018-11-21T00:37:00.834Z,975.29
2018-11-21T00:38:00.792Z,975.41
2018-11-21T00:39:00.751Z,975.39
2018-11-21T00:40:00.710Z,975.38
2018-11-21T00:41:00.670Z,975.32
2018-11-21T00:42:00.619Z,975.31
2018-11-21T00:43:00.578Z,975.31
2018-11-21T00:44:00.534Z,975.30
2018-11-21T00:45:00.495Z,975.30
2018-11-21T00:46:00.450Z,975.37
2018-11-21T00:47:00.402Z,975.47
2018-11-21T00:48:00.359Z,975.52
2018-11-21T00:49:00.316Z,975.54
2018-11-21T00:50:00.271Z,975.57
2018-11-21T00:51:00.234Z,975.62
2018-11-21T00:52:00.188Z,975.64
2018-11-21T00:53:00.145Z,975.62
2018-11-21T00:54:00.135Z,975.62
2018-11-21T00:55:00.055Z,975.71
2018-11-21T00:56:00.014Z,975.74
2018-11-21T00:57:00.451Z,975.81
2018-11-21T00:57:59.933Z,975.80
2018-11-21T00:58:59.881Z,975.79
2018-11-21T00:59:59.840Z,975.78
2018-11-21T01:00:59.803Z,975.78
2018-11-21T01:01:59.768Z,975.83
2018-11-21T01:02:59.714Z,975.89
2018-11-21T01:03:59.672Z,975.85
2018-11-21T01:04:59.669Z,975.83
2018-11-21T01:05:59.587Z,975.80
2018-11-21T01:06:59.537Z,975.80
2018-11-21T01:07:59.497Z,975.84
2018-11-21T01:08:59.453Z,975.86
2018-11-21T01:09:59.412Z,975.84
2018-11-21T01:10:59.368Z,975.86
2018-11-21T01:11:59.327Z,975.84
2018-11-21T01:12:59.280Z,975.84
2018-11-21T01:13:59.234Z,975.80
2018-11-21T01:14:59.196Z,975.82
2018-11-21T01:15:59.154Z,975.83
2018-11-21T01:16:59.108Z,975.84
2018-11-21T01:17:59.069Z,975.85
2018-11-21T01:18:59.021Z,975.87
2018-11-21T01:19:58.976Z,975.89
2018-11-21T01:20:58.934Z,975.93
2018-11-21T01:21:58.889Z,976.02
2018-11-21T01:22:58.851Z,976.10
2018-11-21T01:23:58.810Z,976.11
2018-11-21T01:24:58.763Z,976.18
2018-11-21T01:25:58.723Z,976.15
2018-11-21T01:26:58.672Z,976.16
2018-11-21T01:27:58.632Z,976.18
2018-11-21T01:28:58.591Z,976.21
2018-11-21T01:29:58.549Z,976.16
2018-11-21T01:30:58.502Z,976.13
2018-11-21T01:31:58.467Z,976.17
2018-11-21T01:32:58.415Z,976.17
2018-11-21T01:33:58.371Z,976.11
2018-11-21T01:34:58.333Z,976.15
2018-11-21T01:35:58.293Z,976.20
2018-11-21T01:36:58.245Z,976.20
2018-11-21T01:37:58.206Z,976.22
2018-11-21T01:38:58.158Z,976.19
2018-11-21T01:39:58.113Z,976.26
2018-11-21T01:40:58.074Z,976.26
2018-11-21T01:41:58.025Z,976.27
2018-11-21T01:42:57.987Z,976.27
2018-11-21T01:43:57.941Z,976.26
2018-11-21T01:44:57.897Z,976.24
2018-11-21T01:45:57.852Z,976.19
2018-11-21T01:46:57.816Z,976.20
2018-11-21T01:47:57.769Z,976.22
2018-11-21T01:48:57.727Z,976.18
2018-11-21T01:49:57.685Z,976.20
2018-11-21T01:50:57.635Z,976.19
2018-11-21T01:51:57.602Z,976.18
2018-11-21T01:52:57.557Z,976.20
2018-11-21T01:53:57.507Z,976.23
2018-11-21T01:54:57.472Z,976.20
2018-11-21T01:55:57.424Z,976.22
2018-11-21T01:56:57.381Z,976.24
2018-11-21T01:57:57.342Z,976.26
2018-11-21T01:58:57.290Z,976.27
2018-11-21T01:59:57.251Z,976.30
2018-11-21T02:00:57.209Z,976.30
2018-11-21T02:01:57.167Z,976.29
2018-11-21T02:02:57.118Z,976.24
2018-11-21T02:03:57.078Z,976.25
2018-11-21T02:04:57.037Z,976.19
2018-11-21T02:05:56.991Z,976.29
2018-11-21T02:06:56.952Z,976.37
2018-11-21T02:07:56.906Z,976.36
2018-11-21T02:08:56.863Z,976.33
2018-11-21T02:09:56.823Z,976.37
2018-11-21T02:10:56.774Z,976.36
2018-11-21T02:11:56.733Z,976.29
2018-11-21T02:12:56.690Z,976.27
2018-11-21T02:13:56.646Z,976.28
2018-11-21T02:14:56.624Z,976.38
2018-11-21T02:15:56.561Z,976.42
2018-11-21T02:16:56.516Z,976.47
2018-11-21T02:17:56.473Z,976.49
2018-11-21T02:18:56.438Z,976.54
2018-11-21T02:19:56.388Z,976.55
2018-11-21T02:20:56.345Z,976.50
2018-11-21T02:21:56.306Z,976.52
2018-11-21T02:22:56.254Z,976.48
2018-11-21T02:23:56.212Z,976.51
2018-11-21T02:24:56.169Z,976.55
2018-11-21T02:25:56.125Z,976.57
2018-11-21T02:26:56.089Z,976.58
2018-11-21T02:27:56.041Z,976.55
2018-11-21T02:28:56.000Z,976.59
2018-11-21T02:29:55.976Z,976.59
2018-11-21T02:30:55.909Z,976.59
2018-11-21T02:31:55.882Z,976.57
2018-11-21T02:32:55.826Z,976.59
2018-11-21T02:33:55.784Z,976.61
2018-11-21T02:34:55.735Z,976.63
2018-11-21T02:35:55.695Z,976.62
2018-11-21T02:36:55.655Z,976.64
2018-11-21T02:37:55.606Z,976.62
2018-11-21T02:38:55.568Z,976.70
2018-11-21T02:39:55.523Z,976.71
2018-11-21T02:40:55.479Z,976.68
2018-11-21T02:41:55.439Z,976.71
2018-11-21T02:42:55.389Z,976.66
2018-11-21T02:43:55.353Z,976.63
2018-11-21T02:44:55.304Z,976.58
2018-11-21T02:45:55.260Z,976.58
2018-11-21T02:46:55.221Z,976.59
2018-11-21T02:47:55.179Z,976.59
2018-11-21T02:48:55.131Z,976.61
2018-11-21T02:49:55.091Z,976.59
2018-11-21T02:50:55.050Z,976.51
2018-11-21T02:51:55.006Z,976.48
2018-11-21T02:52:54.962Z,976.51
2018-11-21T02:53:54.924Z,976.51
2018-11-21T02:54:54.868Z,976.56
2018-11-21T02:55:54.832Z,976.58
2018-11-21T02:56:54.787Z,976.66
2018-11-21T02:57:54.742Z,976.66
2018-11-21T02:58:54.702Z,976.64
2018-11-21T02:59:54.659Z,976.64
2018-11-21T03:00:54.617Z,976.73
2018-11-21T03:01:54.573Z,976.78
2018-11-21T03:02:54.523Z,976.83
2018-11-21T03:03:54.482Z,976.85
2018-11-21T03:04:54.441Z,976.90
2018-11-21T03:05:54.400Z,976.94
2018-11-21T03:06:54.349Z,976.95
2018-11-21T03:07:54.308Z,977.03
2018-11-21T03:08:54.267Z,977.01
2018-11-21T03:09:54.225Z,977.01
2018-11-21T03:10:54.183Z,977.04
2018-11-21T03:11:54.137Z,977.09
2018-11-21T03:12:54.099Z,977.10
2018-11-21T03:13:54.053Z,977.06
2018-11-21T03:14:54.012Z,977.07
2018-11-21T03:15:53.965Z,977.11
2018-11-21T03:16:53.920Z,977.09
2018-11-21T03:17:53.876Z,977.10
2018-11-21T03:18:53.837Z,977.12
2018-11-21T03:19:53.799Z,977.18
2018-11-21T03:20:53.746Z,977.17
2018-11-21T03:21:53.703Z,977.18
2018-11-21T03:22:53.666Z,977.20
2018-11-21T03:23:53.619Z,977.25
2018-11-21T03:24:53.576Z,977.27
2018-11-21T03:25:53.536Z,977.27
2018-11-21T03:26:53.486Z,977.30
2018-11-21T03:27:53.451Z,977.33
2018-11-21T03:28:53.401Z,977.30
2018-11-21T03:29:53.363Z,977.29
2018-11-21T03:30:53.322Z,977.26
2018-11-21T03:31:53.276Z,977.26
2018-11-21T03:32:53.231Z,977.25
2018-11-21T03:33:57.665Z,977.24
2018-11-21T03:34:53.142Z,977.26
2018-11-21T03:35:53.110Z,977.19
2018-11-21T03:36:53.058Z,977.17
2018-11-21T03:37:53.018Z,977.17
2018-11-21T03:38:52.978Z,977.18
2018-11-21T03:39:52.927Z,977.16
2018-11-21T03:40:52.884Z,977.16
2018-11-21T03:41:52.841Z,977.13
2018-11-21T03:42:52.801Z,977.12
2018-11-21T03:43:52.757Z,977.11
2018-11-21T03:44:52.716Z,977.10
2018-11-21T03:45:52.675Z,977.13
2018-11-21T03:46:52.627Z,977.20
2018-11-21T03:47:52.582Z,977.19
2018-11-21T03:48:52.538Z,977.20
2018-11-21T03:49:52.497Z,977.17
2018-11-21T03:50:52.455Z,977.18
2018-11-21T03:51:52.415Z,977.15
2018-11-21T04:06:35.036Z,977.46
2018-11-21T04:07:34.946Z,977.44
2018-11-21T04:08:34.902Z,977.46
2018-11-21T04:09:34.865Z,977.48
2018-11-21T04:10:34.808Z,977.45
2018-11-21T04:11:34.762Z,977.46
2018-11-21T04:12:34.720Z,977.40
2018-11-21T04:13:34.672Z,977.40
2018-11-21T04:14:34.625Z,977.38
2018-11-21T04:15:34.581Z,977.34
2018-11-21T04:16:34.538Z,977.32
2018-11-21T04:17:34.500Z,977.35
2018-11-21T04:18:34.449Z,977.38
2018-11-21T04:19:34.406Z,977.34
2018-11-21T04:20:34.367Z,977.41
2018-11-21T04:21:34.317Z,977.47
2018-11-21T04:22:34.272Z,977.51
2018-11-21T04:23:34.232Z,977.50
2018-11-21T04:24:34.184Z,977.51
2018-11-21T04:25:34.149Z,977.52
2018-11-21T04:26:34.101Z,977.51
2018-11-21T04:27:34.054Z,977.56
2018-11-21T04:28:34.009Z,977.60
2018-11-21T04:29:33.973Z,977.66
2018-11-21T04:30:33.927Z,977.64
2018-11-21T04:31:33.882Z,977.73
2018-11-21T04:32:33.848Z,977.74
2018-11-21T04:33:33.792Z,977.76
2018-11-21T04:34:33.755Z,977.79
2018-11-21T04:35:33.710Z,977.82
2018-11-21T04:36:33.667Z,977.76
2018-11-21T04:37:33.628Z,977.72
2018-11-21T04:38:33.580Z,977.69
2018-11-21T04:39:33.541Z,977.66
2018-11-21T04:40:33.502Z,977.70
2018-11-21T04:41:33.465Z,977.65
2018-11-21T04:42:33.444Z,977.69
2018-11-21T04:43:33.367Z,977.72
2018-11-21T04:44:33.329Z,977.72
2018-11-21T04:45:33.273Z,977.72
2018-11-21T04:46:33.231Z,977.72
2018-11-21T04:47:33.189Z,977.78
2018-11-21T04:48:33.146Z,977.78
2018-11-21T04:49:33.112Z,977.77
2018-11-21T04:50:33.061Z,977.73
2018-11-21T04:51:33.021Z,977.74
2018-11-21T04:52:32.975Z,977.73
2018-11-21T04:53:32.931Z,977.74
2018-11-21T04:54:32.886Z,977.77
2018-11-21T04:55:32.852Z,977.76
2018-11-21T04:56:32.802Z,977.83
2018-11-21T04:57:32.762Z,977.83
2018-11-21T04:58:32.740Z,977.85
2018-11-21T04:59:32.670Z,977.83
2018-11-21T05:00:32.630Z,977.85
2018-11-21T05:01:32.602Z,977.81
2018-11-21T05:02:33.008Z,977.82
2018-11-21T05:03:32.505Z,977.79
2018-11-21T05:04:32.460Z,977.84
2018-11-21T05:05:32.415Z,977.88
2018-11-21T05:06:32.370Z,977.88
2018-11-21T05:07:32.330Z,977.87
2018-11-21T05:08:32.290Z,977.88
2018-11-21T05:09:32.245Z,977.91
2018-11-21T05:10:32.204Z,977.92
2018-11-21T05:11:32.167Z,977.97
2018-11-21T05:12:32.117Z,977.94
2018-11-21T05:13:32.072Z,978.00
2018-11-21T05:14:32.026Z,977.98
2018-11-21T05:15:31.989Z,978.02
2018-11-21T05:16:31.944Z,978.06
2018-11-21T05:17:31.900Z,978.08
2018-11-21T05:18:31.857Z,978.13
2018-11-21T05:19:31.831Z,978.13
2018-11-21T05:20:31.771Z,978.14
2018-11-21T05:21:31.733Z,978.14
2018-11-21T05:22:31.688Z,978.15
2018-11-21T05:23:31.647Z,978.15
2018-11-21T05:24:31.602Z,978.14
2018-11-21T05:25:31.556Z,978.14
2018-11-21T05:26:31.512Z,978.14
2018-11-21T05:27:31.469Z,978.16
2018-11-21T05:28:31.427Z,978.21
2018-11-21T05:29:31.389Z,978.21
2018-11-21T05:30:31.345Z,978.26
2018-11-21T05:31:31.296Z,978.23
2018-11-21T05:32:31.256Z,978.22
2018-11-21T05:33:31.216Z,978.24
2018-11-21T05:34:31.173Z,978.32
2018-11-21T05:35:31.133Z,978.31
2018-11-21T05:36:31.091Z,978.32
2018-11-21T05:37:31.041Z,978.34
2018-11-21T05:38:30.997Z,978.36
2018-11-21T05:39:30.953Z,978.31
2018-11-21T05:40:30.912Z,978.28
2018-11-21T05:41:30.874Z,978.35
2018-11-21T05:42:30.831Z,978.39
2018-11-21T05:43:30.788Z,978.36
2018-11-21T05:44:31.530Z,978.28
2018-11-21T05:45:30.698Z,978.21
2018-11-21T05:46:30.652Z,978.21
2018-11-21T05:47:30.616Z,978.30
2018-11-21T05:48:30.573Z,978.33
2018-11-21T05:49:30.528Z,978.29
2018-11-21T05:50:30.484Z,978.21
2018-11-21T05:51:30.447Z,978.23
2018-11-21T05:52:30.405Z,978.23
2018-11-21T05:53:30.360Z,978.31
2018-11-21T05:54:30.324Z,978.26
2018-11-21T05:55:30.277Z,978.24
2018-11-21T05:56:30.231Z,978.27
2018-11-21T05:57:30.184Z,978.32
2018-11-21T05:58:30.139Z,978.37
2018-11-21T05:59:30.096Z,978.41
2018-11-21T06:00:30.056Z,978.40
2018-11-21T06:01:30.017Z,978.44
2018-11-21T06:02:29.974Z,978.47
2018-11-21T06:03:29.924Z,978.42
2018-11-21T06:04:29.900Z,978.49
2018-11-21T06:05:29.844Z,978.48
2018-11-21T06:06:29.802Z,978.52
2018-11-21T06:07:29.759Z,978.51
2018-11-21T06:08:29.715Z,978.52
2018-11-21T06:09:29.675Z,978.55
2018-11-21T06:10:29.624Z,978.58
2018-11-21T06:11:29.584Z,978.54
2018-11-21T06:12:29.542Z,978.52
2018-11-21T06:13:29.502Z,978.58
2018-11-21T06:14:29.458Z,978.59
2018-11-21T06:15:29.414Z,978.63
2018-11-21T06:16:29.373Z,978.61
2018-11-21T06:17:29.326Z,978.63
2018-11-21T06:18:29.280Z,978.58
2018-11-21T06:19:29.244Z,978.64
2018-11-21T06:20:29.199Z,978.63
2018-11-21T06:21:29.158Z,978.68
2018-11-21T06:22:29.108Z,978.74
2018-11-21T06:23:29.066Z,978.77
2018-11-21T06:24:29.025Z,978.78
2018-11-21T06:25:28.985Z,978.79
2018-11-21T06:26:28.944Z,978.81
2018-11-21T06:27:28.899Z,978.80
2018-11-21T06:28:28.855Z,978.81
2018-11-21T06:29:28.815Z,978.84
2018-11-21T06:30:28.764Z,978.85
2018-11-21T06:31:28.723Z,978.85
2018-11-21T06:32:28.681Z,978.84
2018-11-21T06:33:28.640Z,978.88
2018-11-21T06:34:32.725Z,978.94
2018-11-21T06:35:28.550Z,978.97
2018-11-21T06:36:28.515Z,978.96
2018-11-21T06:37:28.468Z,978.95
2018-11-21T06:38:28.426Z,978.94
2018-11-21T06:39:28.383Z,978.97
2018-11-21T06:40:28.337Z,979.04
2018-11-21T06:41:28.296Z,979.06
2018-11-21T06:42:28.247Z,979.07
2018-11-21T06:43:28.212Z,979.13
2018-11-21T06:44:28.164Z,979.13
2018-11-21T06:45:28.124Z,979.05
2018-11-21T06:46:28.088Z,979.05
2018-11-21T06:47:28.041Z,979.09
2018-11-21T06:48:27.995Z,979.06
2018-11-21T06:49:27.950Z,979.11
2018-11-21T06:50:27.903Z,979.12
2018-11-21T06:51:27.914Z,979.12
2018-11-21T06:52:27.821Z,979.13
2018-11-21T06:53:27.779Z,979.08
2018-11-21T06:54:27.731Z,979.10
2018-11-21T06:55:27.690Z,979.09
2018-11-21T06:56:27.650Z,979.11
2018-11-21T06:57:27.610Z,979.14
2018-11-21T06:58:27.566Z,979.13
2018-11-21T06:59:27.522Z,979.14
2018-11-21T07:00:27.479Z,979.14
2018-11-21T07:01:27.436Z,979.11
2018-11-21T07:02:27.387Z,979.13
2018-11-21T07:03:27.347Z,979.11
2018-11-21T07:04:27.321Z,979.13
2018-11-21T07:05:27.264Z,979.14
2018-11-21T07:06:27.220Z,979.18
2018-11-21T07:07:27.172Z,979.16
2018-11-21T07:08:27.135Z,979.17
2018-11-21T07:09:27.090Z,979.18
2018-11-21T07:10:27.049Z,979.20
2018-11-21T07:11:27.068Z,979.22
2018-11-21T07:12:26.962Z,979.22
2018-11-21T07:13:26.921Z,979.24
2018-11-21T07:14:26.871Z,979.27
2018-11-21T07:15:26.828Z,979.31
2018-11-21T07:16:26.790Z,979.34
2018-11-21T07:17:26.746Z,979.36
2018-11-21T07:18:26.711Z,979.37
2018-11-21T07:19:26.660Z,979.38
2018-11-21T07:20:26.624Z,979.49
2018-11-21T07:21:26.572Z,979.54
2018-11-21T07:22:26.528Z,979.52
2018-11-21T07:23:26.495Z,979.56
2018-11-21T07:24:26.523Z,979.63
2018-11-21T07:25:26.404Z,979.66
2018-11-21T07:26:26.365Z,979.68
2018-11-21T07:27:26.314Z,979.67
2018-11-21T07:28:26.274Z,979.70
2018-11-21T07:29:26.231Z,979.69
2018-11-21T07:30:26.189Z,979.70
2018-11-21T07:31:26.146Z,979.73
2018-11-21T07:32:26.102Z,979.77
2018-11-21T07:33:26.056Z,979.80
2018-11-21T07:34:26.012Z,979.78
2018-11-21T07:35:25.967Z,979.76
2018-11-21T07:36:25.928Z,979.73
2018-11-21T07:37:25.886Z,979.74
2018-11-21T07:38:25.844Z,979.74
2018-11-21T07:39:25.797Z,979.77
2018-11-21T07:40:25.758Z,979.78
2018-11-21T07:41:25.728Z,979.77
2018-11-21T07:42:25.676Z,979.72
2018-11-21T07:43:25.630Z,979.72
2018-11-21T07:44:25.586Z,979.70
2018-11-21T07:45:25.544Z,979.69
2018-11-21T07:46:25.498Z,979.72
2018-11-21T07:47:26.662Z,979.70
2018-11-21T07:48:25.411Z,979.69
2018-11-21T07:49:25.371Z,979.66
2018-11-21T07:50:25.333Z,979.68
2018-11-21T07:51:25.286Z,979.69
2018-11-21T07:52:25.242Z,979.75
2018-11-21T07:53:25.198Z,979.69
2018-11-21T07:54:25.150Z,979.72
2018-11-21T07:55:25.115Z,979.75
2018-11-21T07:56:25.070Z,979.75
2018-11-21T07:57:25.028Z,979.86
2018-11-21T07:58:24.979Z,979.87
2018-11-21T07:59:24.937Z,979.91
2018-11-21T08:00:24.901Z,979.95
2018-11-21T08:01:24.859Z,980.03
2018-11-21T08:02:25.639Z,980.09
2018-11-21T08:03:24.772Z,980.08
2018-11-21T08:04:24.728Z,980.07
2018-11-21T08:05:24.711Z,980.01
2018-11-21T08:06:24.640Z,979.97
2018-11-21T08:07:24.597Z,979.95
2018-11-21T08:08:24.553Z,980.01
2018-11-21T08:09:24.512Z,980.04
2018-11-21T08:10:24.472Z,980.00
2018-11-21T08:11:24.428Z,980.00
2018-11-21T08:12:24.384Z,980.04
2018-11-21T08:13:24.347Z,980.15
2018-11-21T08:14:24.301Z,980.21
2018-11-21T08:15:24.266Z,980.20
2018-11-21T08:16:25.129Z,980.18
2018-11-21T08:17:24.169Z,980.17
2018-11-21T08:18:24.122Z,980.22
2018-11-21T08:19:24.080Z,980.26
2018-11-21T08:20:24.049Z,980.30
2018-11-21T08:21:23.999Z,980.40
2018-11-21T08:22:23.957Z,980.41
2018-11-21T08:23:23.923Z,980.39
2018-11-21T08:24:23.873Z,980.39
2018-11-21T08:25:23.833Z,980.42
2018-11-21T08:26:23.784Z,980.49
2018-11-21T08:27:23.746Z,980.48
2018-11-21T08:28:23.708Z,980.50
2018-11-21T08:29:23.656Z,980.42
2018-11-21T08:30:24.134Z,980.39
2018-11-21T08:31:23.571Z,980.37
2018-11-21T08:32:23.530Z,980.37
2018-11-21T08:33:23.487Z,980.37
2018-11-21T08:34:23.449Z,980.44
2018-11-21T08:35:23.403Z,980.38
2018-11-21T08:36:23.357Z,980.39
2018-11-21T08:37:23.315Z,980.40
2018-11-21T08:38:23.266Z,980.44
2018-11-21T08:39:23.225Z,980.40
2018-11-21T08:40:23.184Z,980.43
2018-11-21T08:41:23.144Z,980.48
2018-11-21T08:42:23.100Z,980.50
2018-11-21T08:43:23.061Z,980.55
2018-11-21T08:44:23.014Z,980.57
2018-11-21T08:45:22.972Z,980.53
2018-11-21T08:46:22.929Z,980.58
2018-11-21T08:47:22.887Z,980.61
2018-11-21T08:48:22.840Z,980.60
2018-11-21T08:49:22.796Z,980.58
2018-11-21T08:50:22.749Z,980.58
2018-11-21T08:51:22.709Z,980.54
2018-11-21T08:52:22.667Z,980.57
2018-11-21T08:53:22.625Z,980.52
2018-11-21T08:54:22.585Z,980.57
2018-11-21T08:55:22.543Z,980.58
2018-11-21T08:56:22.496Z,980.60
2018-11-21T08:57:22.462Z,980.60
2018-11-21T08:58:22.405Z,980.66
2018-11-21T08:59:22.372Z,980.67
2018-11-21T09:00:22.342Z,980.67
2018-11-21T09:01:22.280Z,980.66
2018-11-21T09:02:22.237Z,980.66
2018-11-21T09:03:22.193Z,980.68
2018-11-21T09:04:22.151Z,980.67
2018-11-21T09:05:22.112Z,980.68
2018-11-21T09:06:22.068Z,980.65
2018-11-21T09:07:22.025Z,980.63
2018-11-21T09:08:21.984Z,980.66
2018-11-21T09:09:21.934Z,980.75
2018-11-21T09:10:21.896Z,980.77
2018-11-21T09:11:21.851Z,980.77
2018-11-21T09:12:21.810Z,980.80
2018-11-21T09:13:21.769Z,980.79
2018-11-21T09:14:21.723Z,980.81
2018-11-21T09:15:21.684Z,980.80
2018-11-21T09:16:21.634Z,980.84
2018-11-21T09:17:21.598Z,980.82
2018-11-21T09:18:21.551Z,980.90
2018-11-21T09:19:21.509Z,980.87
2018-11-21T09:20:21.468Z,980.90
2018-11-21T09:21:21.419Z,980.94
2018-11-21T09:22:21.393Z,980.89
2018-11-21T09:23:21.338Z,980.85
2018-11-21T09:24:21.291Z,980.83
2018-11-21T09:25:21.255Z,980.88
2018-11-21T09:26:21.208Z,980.92
2018-11-21T09:27:21.166Z,981.00
2018-11-21T09:28:21.127Z,981.01
2018-11-21T09:29:21.076Z,981.03
2018-11-21T09:30:21.041Z,981.07
2018-11-21T09:31:20.994Z,981.12
2018-11-21T09:32:20.953Z,981.12
2018-11-21T09:33:20.904Z,981.10
2018-11-21T09:34:20.862Z,981.09
2018-11-21T09:35:20.821Z,981.12
2018-11-21T09:36:20.780Z,981.13
2018-11-21T09:37:20.739Z,981.14
2018-11-21T09:38:20.693Z,981.19
2018-11-21T09:39:20.651Z,981.14
2018-11-21T09:40:20.612Z,981.15
2018-11-21T09:41:20.562Z,981.14
2018-11-21T09:42:20.522Z,981.21
2018-11-21T09:43:20.477Z,981.18
2018-11-21T09:44:20.432Z,981.18
2018-11-21T09:45:20.396Z,981.22
2018-11-21T09:46:20.375Z,981.19
2018-11-21T09:47:20.307Z,981.20
2018-11-21T09:48:20.263Z,981.21
2018-11-21T09:49:20.224Z,981.21
2018-11-21T09:50:20.183Z,981.22
2018-11-21T09:51:20.133Z,981.21
2018-11-21T09:52:20.095Z,981.20
2018-11-21T09:53:20.047Z,981.20
2018-11-21T09:54:20.047Z,981.20
2018-11-21T09:55:19.967Z,981.18
2018-11-21T09:56:19.917Z,981.17
2018-11-21T09:57:19.882Z,981.17
2018-11-21T09:58:19.839Z,981.15
2018-11-21T09:59:19.793Z,981.18
2018-11-21T10:00:19.755Z,981.22
2018-11-21T10:01:19.704Z,981.22
2018-11-21T10:02:19.662Z,981.30
2018-11-21T10:03:19.622Z,981.27
2018-11-21T10:04:19.581Z,981.32
2018-11-21T10:05:19.533Z,981.31
2018-11-21T10:19:59.440Z,981.26
2018-11-21T10:20:59.378Z,981.29
2018-11-21T10:21:59.323Z,981.27
2018-11-21T10:22:59.278Z,981.23
2018-11-21T10:23:59.236Z,981.22
2018-11-21T10:24:59.190Z,981.24
2018-11-21T10:25:59.147Z,981.25
2018-11-21T10:26:59.103Z,981.26
2018-11-21T10:27:59.057Z,981.25
2018-11-21T10:28:59.011Z,981.26
2018-11-21T10:29:58.972Z,981.26
2018-11-21T10:30:58.927Z,981.31
2018-11-21T10:31:58.880Z,981.29
2018-11-21T10:32:58.836Z,981.23
2018-11-21T10:33:58.792Z,981.28
2018-11-21T10:34:58.753Z,981.29
2018-11-21T10:35:58.711Z,981.31
2018-11-21T10:36:58.668Z,981.28
2018-11-21T10:37:58.628Z,981.30
2018-11-21T10:38:58.587Z,981.27
2018-11-21T10:39:58.538Z,981.26
2018-11-21T10:40:58.491Z,981.24
2018-11-21T10:41:58.451Z,981.28
2018-11-21T10:42:58.409Z,981.29
2018-11-21T10:43:58.369Z,981.28
2018-11-21T10:44:58.322Z,981.30
2018-11-21T10:45:58.278Z,981.29
2018-11-21T10:46:58.235Z,981.31
2018-11-21T10:47:58.197Z,981.32
2018-11-21T10:48:58.151Z,981.35
2018-11-21T10:49:58.116Z,981.35
2018-11-21T10:50:58.070Z,981.33
2018-11-21T10:51:58.022Z,981.36
2018-11-21T10:52:57.980Z,981.39
2018-11-21T10:53:57.938Z,981.45
2018-11-21T10:54:57.896Z,981.47
2018-11-21T10:55:57.856Z,981.49
2018-11-21T10:56:57.815Z,981.52
2018-11-21T10:57:57.770Z,981.49
2018-11-21T10:58:57.729Z,981.51
2018-11-21T10:59:57.681Z,981.53
2018-11-21T11:00:57.643Z,981.49
2018-11-21T11:01:57.601Z,981.51
2018-11-21T11:02:57.562Z,981.47
2018-11-21T11:03:57.556Z,981.55
2018-11-21T11:04:57.471Z,981.53
2018-11-21T11:05:57.430Z,981.50
2018-11-21T11:06:57.386Z,981.47
2018-11-21T11:07:57.349Z,981.43
2018-11-21T11:08:57.305Z,981.42
2018-11-21T11:09:57.263Z,981.39
2018-11-21T11:10:57.224Z,981.44
2018-11-21T11:11:57.174Z,981.45
2018-11-21T11:12:57.138Z,981.51
2018-11-21T11:13:57.092Z,981.52
2018-11-21T11:14:57.048Z,981.51
2018-11-21T11:15:57.011Z,981.52
2018-11-21T11:16:56.970Z,981.55
2018-11-21T11:17:59.498Z,981.52
2018-11-21T11:18:56.892Z,981.56
2018-11-21T11:19:56.848Z,981.57
2018-11-21T11:20:56.824Z,981.60
2018-11-21T11:21:56.763Z,981.61
2018-11-21T11:22:56.724Z,981.65
2018-11-21T11:23:56.672Z,981.68
2018-11-21T11:24:56.630Z,981.70
2018-11-21T11:25:56.589Z,981.73
2018-11-21T11:26:56.545Z,981.75
2018-11-21T11:27:56.532Z,981.78
2018-11-21T11:28:56.464Z,981.80
2018-11-21T11:29:56.428Z,981.80
2018-11-21T11:30:56.383Z,981.82
2018-11-21T11:31:56.335Z,981.83
2018-11-21T11:32:56.297Z,981.82
2018-11-21T11:33:56.257Z,981.81
2018-11-21T11:34:56.217Z,981.81
2018-11-21T11:35:56.167Z,981.83
2018-11-21T11:36:56.133Z,981.83
2018-11-21T11:37:56.087Z,981.82
2018-11-21T11:38:56.043Z,981.77
2018-11-21T11:39:56.007Z,981.74
2018-11-21T11:40:55.964Z,981.80
2018-11-21T11:41:55.923Z,981.76
2018-11-21T11:42:55.880Z,981.73
2018-11-21T11:43:55.836Z,981.74
2018-11-21T11:44:55.817Z,981.73
2018-11-21T11:45:55.752Z,981.76
2018-11-21T11:46:55.712Z,981.72
2018-11-21T11:47:55.671Z,981.73
2018-11-21T11:48:55.632Z,981.75
2018-11-21T11:49:55.589Z,981.72
2018-11-21T11:50:55.546Z,981.72
2018-11-21T11:51:55.508Z,981.75
2018-11-21T11:52:55.466Z,981.79
2018-11-21T11:53:55.427Z,981.78
2018-11-21T11:54:55.381Z,981.78
2018-11-21T11:55:55.339Z,981.79
2018-11-21T11:56:55.294Z,981.79
2018-11-21T11:57:55.253Z,981.77
2018-11-21T11:58:55.213Z,981.76
2018-11-21T11:59:55.173Z,981.75
2018-11-21T12:00:55.134Z,981.72
2018-11-21T12:01:55.092Z,981.70
2018-11-21T12:02:55.056Z,981.70
2018-11-21T12:03:57.855Z,981.70
2018-11-21T12:04:54.962Z,981.69
2018-11-21T12:05:54.925Z,981.68
2018-11-21T12:06:54.886Z,981.66
2018-11-21T12:07:54.840Z,981.68
2018-11-21T12:08:54.795Z,981.66
2018-11-21T12:09:54.755Z,981.68
2018-11-21T12:10:54.718Z,981.63
2018-11-21T12:11:54.674Z,981.62
2018-11-21T12:12:54.636Z,981.58
2018-11-21T12:13:54.593Z,981.61
2018-11-21T12:14:54.551Z,981.62
2018-11-21T12:15:54.505Z,981.56
2018-11-21T12:16:54.463Z,981.57
2018-11-21T12:17:54.422Z,981.54
2018-11-21T12:18:54.381Z,981.50
2018-11-21T12:19:54.344Z,981.51
2018-11-21T12:20:54.302Z,981.45
2018-11-21T12:21:54.253Z,981.48
2018-11-21T12:22:54.214Z,981.44
2018-11-21T12:23:54.175Z,981.47
2018-11-21T12:24:54.133Z,981.54
2018-11-21T12:25:54.092Z,981.56
2018-11-21T12:26:54.050Z,981.53
2018-11-21T12:27:54.004Z,981.55
2018-11-21T12:28:53.961Z,981.53
2018-11-21T12:29:53.920Z,981.55
2018-11-21T12:30:53.878Z,981.50
2018-11-21T12:31:53.840Z,981.54
2018-11-21T12:32:53.809Z,981.52
2018-11-21T12:33:53.757Z,981.53
2018-11-21T12:34:53.717Z,981.54
2018-11-21T12:35:53.670Z,981.55
2018-11-21T12:36:53.627Z,981.55
2018-11-21T12:37:53.594Z,981.52
2018-11-21T12:38:53.547Z,981.54
2018-11-21T12:39:53.506Z,981.53
2018-11-21T12:40:53.458Z,981.55
2018-11-21T12:41:53.417Z,981.55
2018-11-21T12:42:53.379Z,981.56
2018-11-21T12:43:53.673Z,981.55
2018-11-21T12:44:53.295Z,981.61
2018-11-21T12:45:53.255Z,981.64
2018-11-21T12:46:53.210Z,981.60
2018-11-21T12:47:53.165Z,981.58
2018-11-21T12:48:53.122Z,981.60
2018-11-21T12:49:53.080Z,981.57
2018-11-21T12:50:53.041Z,981.59
2018-11-21T12:51:52.999Z,981.57
2018-11-21T12:52:52.959Z,981.57
2018-11-21T12:53:52.913Z,981.56
2018-11-21T12:54:52.873Z,981.58
2018-11-21T12:55:52.830Z,981.62
2018-11-21T12:56:52.794Z,981.66